sensor_id;sensor_type;location;lat;lon;timestamp;P1;durP1;ratioP1;P2;durP2;ratioP2
41887;SDS011;63122;52.424;13.458;2023-11-21T01:13:31;0.70;;;0.70;;
41887;SDS011;63122;52.424;13.458;2023-11-21T01:18:30;0.73;;;0.73;;
41887;SDS011;63122;52.424;13.458;2023-11-21T01:21:06;0.80;;;0.80;;
41887;SDS011;63122;52.424;13.458;2023-11-21T01:26:13;0.67;;;0.67;;
41887;SDS011;63122;52.424;13.458;2023-11-21T01:29:17;4.50;;;1.63;;
41887;SDS011;63122;52.424;13.458;2023-11-21T01:31:45;1.60;;;1.47;;
41887;SDS011;63122;52.424;13.458;2023-11-21T01:34:28;4.77;;;1.87;;
41887;SDS011;63122;52.424;13.458;2023-11-21T01:37:11;3.03;;;1.23;;
41887;SDS011;63122;52.424;13.458;2023-11-21T01:40:19;1.17;;;1.07;;
41887;SDS011;63122;52.424;13.458;2023-11-21T01:43:09;0.70;;;0.70;;
41887;SDS011;63122;52.424;13.458;2023-11-21T01:46:04;2.60;;;1.37;;
41887;SDS011;63122;52.424;13.458;2023-11-21T01:48:35;2.40;;;1.23;;
41887;SDS011;63122;52.424;13.458;2023-11-21T01:51:21;1.00;;;1.00;;
41887;SDS011;63122;52.424;13.458;2023-11-21T01:54:17;1.67;;;1.07;;
41887;SDS011;63122;52.424;13.458;2023-11-21T01:57:20;1.03;;;0.97;;
41887;SDS011;63122;52.424;13.458;2023-11-21T01:59:54;1.43;;;1.33;;
41887;SDS011;63122;52.424;13.458;2023-11-21T02:04:53;1.37;;;1.27;;
41887;SDS011;63122;52.424;13.458;2023-11-21T02:07:30;1.20;;;0.90;;
41887;SDS011;63122;52.424;13.458;2023-11-21T02:10:42;3.40;;;2.03;;
41887;SDS011;63122;52.424;13.458;2023-11-21T02:13:03;1.13;;;1.03;;
41887;SDS011;63122;52.424;13.458;2023-11-21T02:15:42;0.97;;;0.90;;
41887;SDS011;63122;52.424;13.458;2023-11-21T02:21:27;2.33;;;1.20;;
41887;SDS011;63122;52.424;13.458;2023-11-21T02:24:10;1.73;;;1.63;;
41887;SDS011;63122;52.424;13.458;2023-11-21T02:26:45;1.90;;;1.47;;
41887;SDS011;63122;52.424;13.458;2023-11-21T02:29:45;0.63;;;0.57;;
41887;SDS011;63122;52.424;13.458;2023-11-21T02:32:01;0.53;;;0.53;;
41887;SDS011;63122;52.424;13.458;2023-11-21T02:35:06;0.93;;;0.93;;
41887;SDS011;63122;52.424;13.458;2023-11-21T02:40:42;2.30;;;2.10;;
41887;SDS011;63122;52.424;13.458;2023-11-21T02:44:01;1.30;;;1.10;;
41887;SDS011;63122;52.424;13.458;2023-11-21T02:46:19;0.50;;;0.50;;
41887;SDS011;63122;52.424;13.458;2023-11-21T03:11:54;0.67;;;0.67;;
41887;SDS011;63122;52.424;13.458;2023-11-21T03:15:13;0.50;;;0.50;;
41887;SDS011;63122;52.424;13.458;2023-11-21T03:18:14;0.77;;;0.77;;
41887;SDS011;63122;52.424;13.458;2023-11-21T03:20:54;3.87;;;1.27;;
41887;SDS011;63122;52.424;13.458;2023-11-21T03:24:08;0.80;;;0.80;;
41887;SDS011;63122;52.424;13.458;2023-11-21T03:30:44;0.77;;;0.67;;
41887;SDS011;63122;52.424;13.458;2023-11-21T03:33:36;0.30;;;0.30;;
41887;SDS011;63122;52.424;13.458;2023-11-21T03:44:32;2.10;;;0.87;;
41887;SDS011;63122;52.424;13.458;2023-11-21T03:53:25;0.27;;;0.27;;
41887;SDS011;63122;52.424;13.458;2023-11-21T03:56:23;0.83;;;0.83;;
41887;SDS011;63122;52.424;13.458;2023-11-21T04:01:35;0.40;;;0.40;;
41887;SDS011;63122;52.424;13.458;2023-11-21T04:04:15;3.60;;;0.63;;
41887;SDS011;63122;52.424;13.458;2023-11-21T04:06:57;1.23;;;1.00;;
41887;SDS011;63122;52.424;13.458;2023-11-21T04:09:43;2.53;;;0.73;;
41887;SDS011;63122;52.424;13.458;2023-11-21T04:12:10;0.63;;;0.60;;
41887;SDS011;63122;52.424;13.458;2023-11-21T04:14:40;0.30;;;0.30;;
41887;SDS011;63122;52.424;13.458;2023-11-21T04:17:07;0.33;;;0.33;;
41887;SDS011;63122;52.424;13.458;2023-11-21T04:19:29;0.47;;;0.47;;
41887;SDS011;63122;52.424;13.458;2023-11-21T04:22:15;0.60;;;0.60;;
41887;SDS011;63122;52.424;13.458;2023-11-21T04:24:49;3.40;;;1.47;;
41887;SDS011;63122;52.424;13.458;2023-11-21T04:27:45;1.87;;;1.43;;
41887;SDS011;63122;52.424;13.458;2023-11-21T04:30:23;1.90;;;1.30;;
41887;SDS011;63122;52.424;13.458;2023-11-21T04:32:56;2.93;;;1.90;;
41887;SDS011;63122;52.424;13.458;2023-11-21T04:35:05;0.63;;;0.37;;
41887;SDS011;63122;52.424;13.458;2023-11-21T04:37:22;0.43;;;0.43;;
41887;SDS011;63122;52.424;13.458;2023-11-21T04:39:50;1.50;;;0.80;;
41887;SDS011;63122;52.424;13.458;2023-11-21T04:42:56;0.60;;;0.60;;
41887;SDS011;63122;52.424;13.458;2023-11-21T04:52:32;1.30;;;1.20;;
41887;SDS011;63122;52.424;13.458;2023-11-21T04:55:10;0.97;;;0.80;;
41887;SDS011;63122;52.424;13.458;2023-11-21T05:01:04;2.50;;;0.77;;
41887;SDS011;63122;52.424;13.458;2023-11-21T05:03:40;0.33;;;0.33;;
41887;SDS011;63122;52.424;13.458;2023-11-21T05:06:42;0.90;;;0.90;;
41887;SDS011;63122;52.424;13.458;2023-11-21T05:09:01;1.17;;;1.07;;
41887;SDS011;63122;52.424;13.458;2023-11-21T05:11:26;0.63;;;0.47;;
41887;SDS011;63122;52.424;13.458;2023-11-21T05:14:05;0.73;;;0.73;;
41887;SDS011;63122;52.424;13.458;2023-11-21T05:17:29;0.40;;;0.40;;
41887;SDS011;63122;52.424;13.458;2023-11-21T05:20:29;0.30;;;0.30;;
41887;SDS011;63122;52.424;13.458;2023-11-21T05:23:25;0.40;;;0.40;;
41887;SDS011;63122;52.424;13.458;2023-11-21T05:32:59;0.20;;;0.20;;
41887;SDS011;63122;52.424;13.458;2023-11-21T05:35:39;0.40;;;0.40;;
41887;SDS011;63122;52.424;13.458;2023-11-21T05:39:05;0.20;;;0.20;;
41887;SDS011;63122;52.424;13.458;2023-11-21T05:42:15;0.47;;;0.47;;
41887;SDS011;63122;52.424;13.458;2023-11-21T05:45:13;0.53;;;0.53;;
41887;SDS011;63122;52.424;13.458;2023-11-21T05:51:44;0.50;;;0.50;;
41887;SDS011;63122;52.424;13.458;2023-11-21T05:57:45;0.23;;;0.23;;
41887;SDS011;63122;52.424;13.458;2023-11-21T05:59:51;0.30;;;0.30;;
41887;SDS011;63122;52.424;13.458;2023-11-21T06:01:55;0.27;;;0.27;;
41887;SDS011;63122;52.424;13.458;2023-11-21T06:04:30;1.27;;;0.90;;
41887;SDS011;63122;52.424;13.458;2023-11-21T06:06:53;0.77;;;0.50;;
41887;SDS011;63122;52.424;13.458;2023-11-21T06:08:50;0.30;;;0.30;;
41887;SDS011;63122;52.424;13.458;2023-11-21T06:11:07;0.40;;;0.40;;
41887;SDS011;63122;52.424;13.458;2023-11-21T06:13:25;1.17;;;1.07;;
41887;SDS011;63122;52.424;13.458;2023-11-21T06:15:21;0.57;;;0.47;;
41887;SDS011;63122;52.424;13.458;2023-11-21T06:17:29;0.90;;;0.70;;
41887;SDS011;63122;52.424;13.458;2023-11-21T06:20:00;0.37;;;0.37;;
41887;SDS011;63122;52.424;13.458;2023-11-21T06:22:11;0.60;;;0.50;;
41887;SDS011;63122;52.424;13.458;2023-11-21T06:24:41;0.20;;;0.20;;
41887;SDS011;63122;52.424;13.458;2023-11-21T06:28:53;0.20;;;0.20;;
41887;SDS011;63122;52.424;13.458;2023-11-21T06:30:51;0.30;;;0.30;;
41887;SDS011;63122;52.424;13.458;2023-11-21T06:33:12;0.20;;;0.20;;
41887;SDS011;63122;52.424;13.458;2023-11-21T06:35:22;0.30;;;0.30;;
41887;SDS011;63122;52.424;13.458;2023-11-21T06:37:19;0.57;;;0.53;;
41887;SDS011;63122;52.424;13.458;2023-11-21T06:39:16;0.40;;;0.40;;
41887;SDS011;63122;52.424;13.458;2023-11-21T06:41:14;0.40;;;0.40;;
41887;SDS011;63122;52.424;13.458;2023-11-21T06:43:10;0.40;;;0.40;;
41887;SDS011;63122;52.424;13.458;2023-11-21T06:45:03;0.40;;;0.40;;
41887;SDS011;63122;52.424;13.458;2023-11-21T06:46:59;0.37;;;0.37;;
41887;SDS011;63122;52.424;13.458;2023-11-21T06:48:51;0.20;;;0.20;;
41887;SDS011;63122;52.424;13.458;2023-11-21T06:50:50;0.30;;;0.30;;
41887;SDS011;63122;52.424;13.458;2023-11-21T06:52:45;0.20;;;0.20;;
41887;SDS011;63122;52.424;13.458;2023-11-21T06:54:41;0.40;;;0.40;;
41887;SDS011;63122;52.424;13.458;2023-11-21T06:56:40;0.93;;;0.93;;
41887;SDS011;63122;52.424;13.458;2023-11-21T06:58:35;0.70;;;0.70;;
41887;SDS011;63122;52.424;13.458;2023-11-21T07:00:30;3.00;;;0.67;;
41887;SDS011;63122;52.424;13.458;2023-11-21T07:02:26;0.40;;;0.40;;
41887;SDS011;63122;52.424;13.458;2023-11-21T07:04:20;0.30;;;0.30;;
41887;SDS011;63122;52.424;13.458;2023-11-21T07:06:19;0.30;;;0.30;;
41887;SDS011;63122;52.424;13.458;2023-11-21T07:08:14;0.40;;;0.40;;
41887;SDS011;63122;52.424;13.458;2023-11-21T07:10:09;8.90;;;0.97;;
41887;SDS011;63122;52.424;13.458;2023-11-21T07:12:05;7.60;;;0.60;;
41887;SDS011;63122;52.424;13.458;2023-11-21T07:14:02;0.40;;;0.40;;
41887;SDS011;63122;52.424;13.458;2023-11-21T07:15:59;3.30;;;0.97;;
41887;SDS011;63122;52.424;13.458;2023-11-21T07:17:58;0.20;;;0.20;;
41887;SDS011;63122;52.424;13.458;2023-11-21T07:19:54;0.30;;;0.30;;
41887;SDS011;63122;52.424;13.458;2023-11-21T07:22:02;0.37;;;0.37;;
41887;SDS011;63122;52.424;13.458;2023-11-21T07:24:07;0.30;;;0.30;;
41887;SDS011;63122;52.424;13.458;2023-11-21T07:26:22;0.27;;;0.27;;
41887;SDS011;63122;52.424;13.458;2023-11-21T07:31:10;0.90;;;0.83;;
41887;SDS011;63122;52.424;13.458;2023-11-21T07:33:42;0.40;;;0.40;;
41887;SDS011;63122;52.424;13.458;2023-11-21T07:35:50;0.30;;;0.30;;
41887;SDS011;63122;52.424;13.458;2023-11-21T07:38:03;0.20;;;0.20;;
41887;SDS011;63122;52.424;13.458;2023-11-21T07:39:59;1.43;;;0.73;;
41887;SDS011;63122;52.424;13.458;2023-11-21T07:41:55;0.30;;;0.30;;
41887;SDS011;63122;52.424;13.458;2023-11-21T07:43:51;0.30;;;0.30;;
41887;SDS011;63122;52.424;13.458;2023-11-21T07:45:46;3.50;;;1.60;;
41887;SDS011;63122;52.424;13.458;2023-11-21T07:47:42;4.03;;;1.70;;
41887;SDS011;63122;52.424;13.458;2023-11-21T07:49:40;0.20;;;0.20;;
41887;SDS011;63122;52.424;13.458;2023-11-21T07:51:37;0.33;;;0.33;;
41887;SDS011;63122;52.424;13.458;2023-11-21T07:53:35;1.23;;;0.97;;
41887;SDS011;63122;52.424;13.458;2023-11-21T07:55:32;2.23;;;0.70;;
41887;SDS011;63122;52.424;13.458;2023-11-21T07:57:28;3.40;;;1.33;;
41887;SDS011;63122;52.424;13.458;2023-11-21T07:59:24;0.27;;;0.27;;
41887;SDS011;63122;52.424;13.458;2023-11-21T08:01:20;0.30;;;0.30;;
41887;SDS011;63122;52.424;13.458;2023-11-21T08:03:16;0.50;;;0.50;;
41887;SDS011;63122;52.424;13.458;2023-11-21T08:05:12;0.30;;;0.30;;
41887;SDS011;63122;52.424;13.458;2023-11-21T08:07:16;0.43;;;0.43;;
41887;SDS011;63122;52.424;13.458;2023-11-21T08:09:15;0.40;;;0.40;;
41887;SDS011;63122;52.424;13.458;2023-11-21T08:11:12;4.77;;;0.77;;
41887;SDS011;63122;52.424;13.458;2023-11-21T08:13:05;0.73;;;0.73;;
41887;SDS011;63122;52.424;13.458;2023-11-21T08:15:02;0.50;;;0.50;;
41887;SDS011;63122;52.424;13.458;2023-11-21T08:17:00;0.33;;;0.33;;
41887;SDS011;63122;52.424;13.458;2023-11-21T08:18:58;1.37;;;1.27;;
41887;SDS011;63122;52.424;13.458;2023-11-21T08:20:55;0.53;;;0.50;;
41887;SDS011;63122;52.424;13.458;2023-11-21T08:22:52;0.37;;;0.37;;
41887;SDS011;63122;52.424;13.458;2023-11-21T08:24:55;0.30;;;0.30;;
41887;SDS011;63122;52.424;13.458;2023-11-21T08:26:53;0.30;;;0.30;;
41887;SDS011;63122;52.424;13.458;2023-11-21T08:28:50;0.87;;;0.83;;
41887;SDS011;63122;52.424;13.458;2023-11-21T08:30:49;0.37;;;0.37;;
41887;SDS011;63122;52.424;13.458;2023-11-21T08:32:46;1.33;;;1.00;;
41887;SDS011;63122;52.424;13.458;2023-11-21T08:34:41;1.37;;;0.97;;
41887;SDS011;63122;52.424;13.458;2023-11-21T08:36:41;0.63;;;0.63;;
41887;SDS011;63122;52.424;13.458;2023-11-21T08:38:38;0.20;;;0.20;;
41887;SDS011;63122;52.424;13.458;2023-11-21T08:40:40;0.20;;;0.20;;
41887;SDS011;63122;52.424;13.458;2023-11-21T08:42:33;0.40;;;0.40;;
41887;SDS011;63122;52.424;13.458;2023-11-21T08:44:29;2.00;;;1.33;;
41887;SDS011;63122;52.424;13.458;2023-11-21T08:46:25;3.83;;;1.63;;
41887;SDS011;63122;52.424;13.458;2023-11-21T08:48:21;0.20;;;0.20;;
41887;SDS011;63122;52.424;13.458;2023-11-21T08:50:19;1.23;;;0.83;;
41887;SDS011;63122;52.424;13.458;2023-11-21T08:52:15;1.33;;;1.07;;
41887;SDS011;63122;52.424;13.458;2023-11-21T08:54:10;0.63;;;0.63;;
41887;SDS011;63122;52.424;13.458;2023-11-21T08:56:09;0.73;;;0.73;;
41887;SDS011;63122;52.424;13.458;2023-11-21T08:58:09;7.10;;;2.23;;
41887;SDS011;63122;52.424;13.458;2023-11-21T09:00:06;0.53;;;0.53;;
41887;SDS011;63122;52.424;13.458;2023-11-21T09:02:03;1.50;;;0.83;;
41887;SDS011;63122;52.424;13.458;2023-11-21T09:04:03;0.77;;;0.77;;
41887;SDS011;63122;52.424;13.458;2023-11-21T09:09:41;0.57;;;0.57;;
41887;SDS011;63122;52.424;13.458;2023-11-21T09:11:50;0.43;;;0.43;;
41887;SDS011;63122;52.424;13.458;2023-11-21T09:14:07;1.20;;;1.10;;
41887;SDS011;63122;52.424;13.458;2023-11-21T09:16:21;38.20;;;1.13;;
41887;SDS011;63122;52.424;13.458;2023-11-21T09:18:17;0.53;;;0.53;;
41887;SDS011;63122;52.424;13.458;2023-11-21T09:20:13;0.30;;;0.30;;
41887;SDS011;63122;52.424;13.458;2023-11-21T09:22:09;0.30;;;0.30;;
41887;SDS011;63122;52.424;13.458;2023-11-21T09:24:02;0.50;;;0.50;;
41887;SDS011;63122;52.424;13.458;2023-11-21T09:25:58;0.30;;;0.30;;
41887;SDS011;63122;52.424;13.458;2023-11-21T09:27:56;0.60;;;0.60;;
41887;SDS011;63122;52.424;13.458;2023-11-21T09:29:52;0.83;;;0.83;;
41887;SDS011;63122;52.424;13.458;2023-11-21T09:31:48;0.50;;;0.40;;
41887;SDS011;63122;52.424;13.458;2023-11-21T09:33:44;0.20;;;0.20;;
41887;SDS011;63122;52.424;13.458;2023-11-21T09:35:40;0.30;;;0.30;;
41887;SDS011;63122;52.424;13.458;2023-11-21T09:37:33;0.23;;;0.23;;
41887;SDS011;63122;52.424;13.458;2023-11-21T09:39:30;0.27;;;0.27;;
41887;SDS011;63122;52.424;13.458;2023-11-21T09:41:29;0.40;;;0.40;;
41887;SDS011;63122;52.424;13.458;2023-11-21T09:47:31;0.30;;;0.30;;
41887;SDS011;63122;52.424;13.458;2023-11-21T09:50:06;1.20;;;0.80;;
41887;SDS011;63122;52.424;13.458;2023-11-21T09:56:36;0.53;;;0.53;;
41887;SDS011;63122;52.424;13.458;2023-11-21T10:03:04;0.30;;;0.30;;
41887;SDS011;63122;52.424;13.458;2023-11-21T10:05:51;11.10;;;4.83;;
41887;SDS011;63122;52.424;13.458;2023-11-21T10:07:52;9.93;;;4.10;;
41887;SDS011;63122;52.424;13.458;2023-11-21T10:09:54;13.00;;;4.43;;
41887;SDS011;63122;52.424;13.458;2023-11-21T10:11:52;8.07;;;3.60;;
41887;SDS011;63122;52.424;13.458;2023-11-21T10:14:59;11.70;;;3.53;;
41887;SDS011;63122;52.424;13.458;2023-11-21T10:16:59;6.93;;;3.17;;
41887;SDS011;63122;52.424;13.458;2023-11-21T10:18:58;6.87;;;3.43;;
41887;SDS011;63122;52.424;13.458;2023-11-21T10:21:03;7.07;;;3.47;;
41887;SDS011;63122;52.424;13.458;2023-11-21T10:22:59;9.83;;;3.10;;
41887;SDS011;63122;52.424;13.458;2023-11-21T10:24:55;7.27;;;3.57;;
41887;SDS011;63122;52.424;13.458;2023-11-21T10:26:53;5.07;;;2.67;;
41887;SDS011;63122;52.424;13.458;2023-11-21T10:28:56;8.80;;;3.00;;
41887;SDS011;63122;52.424;13.458;2023-11-21T10:30:59;6.00;;;3.03;;
41887;SDS011;63122;52.424;13.458;2023-11-21T10:32:59;5.13;;;2.30;;
41887;SDS011;63122;52.424;13.458;2023-11-21T10:35:02;3.47;;;2.17;;
41887;SDS011;63122;52.424;13.458;2023-11-21T10:47:36;6.57;;;2.23;;
41887;SDS011;63122;52.424;13.458;2023-11-21T10:49:53;4.17;;;2.47;;
41887;SDS011;63122;52.424;13.458;2023-11-21T11:02:37;6.50;;;2.67;;
41887;SDS011;63122;52.424;13.458;2023-11-21T11:04:33;6.00;;;2.07;;
41887;SDS011;63122;52.424;13.458;2023-11-21T11:06:31;4.33;;;2.30;;
41887;SDS011;63122;52.424;13.458;2023-11-21T11:08:34;4.83;;;2.13;;
41887;SDS011;63122;52.424;13.458;2023-11-21T11:14:38;3.80;;;2.20;;
41887;SDS011;63122;52.424;13.458;2023-11-21T11:17:34;4.47;;;2.30;;
41887;SDS011;63122;52.424;13.458;2023-11-21T11:20:55;3.53;;;2.00;;
41887;SDS011;63122;52.424;13.458;2023-11-21T11:23:13;4.23;;;2.20;;
41887;SDS011;63122;52.424;13.458;2023-11-21T11:26:05;3.37;;;2.30;;
41887;SDS011;63122;52.424;13.458;2023-11-21T11:29:01;4.63;;;2.33;;
41887;SDS011;63122;52.424;13.458;2023-11-21T11:32:10;5.03;;;2.33;;
41887;SDS011;63122;52.424;13.458;2023-11-21T11:34:30;3.30;;;2.07;;
41887;SDS011;63122;52.424;13.458;2023-11-21T11:36:52;3.63;;;2.47;;
41887;SDS011;63122;52.424;13.458;2023-11-21T11:42:26;5.93;;;2.70;;
41887;SDS011;63122;52.424;13.458;2023-11-21T11:47:32;4.53;;;2.57;;
41887;SDS011;63122;52.424;13.458;2023-11-21T11:54:34;5.63;;;3.07;;
41887;SDS011;63122;52.424;13.458;2023-11-21T11:56:31;3.00;;;2.27;;
41887;SDS011;63122;52.424;13.458;2023-11-21T11:59:07;5.13;;;3.07;;
41887;SDS011;63122;52.424;13.458;2023-11-21T12:07:10;7.13;;;4.20;;
41887;SDS011;63122;52.424;13.458;2023-11-21T12:09:12;5.33;;;2.77;;
41887;SDS011;63122;52.424;13.458;2023-11-21T12:14:42;4.73;;;2.60;;
41887;SDS011;63122;52.424;13.458;2023-11-21T12:20:43;4.50;;;2.87;;
41887;SDS011;63122;52.424;13.458;2023-11-21T12:23:13;3.60;;;2.83;;
41887;SDS011;63122;52.424;13.458;2023-11-21T12:25:27;4.87;;;2.80;;
41887;SDS011;63122;52.424;13.458;2023-11-21T12:27:40;5.97;;;2.80;;
41887;SDS011;63122;52.424;13.458;2023-11-21T12:29:41;4.87;;;3.17;;
41887;SDS011;63122;52.424;13.458;2023-11-21T12:31:48;4.33;;;2.70;;
41887;SDS011;63122;52.424;13.458;2023-11-21T13:09:16;3.93;;;2.73;;
41887;SDS011;63122;52.424;13.458;2023-11-21T13:30:02;3.80;;;3.10;;
41887;SDS011;63122;52.424;13.458;2023-11-21T13:53:06;7.67;;;4.57;;
41887;SDS011;63122;52.424;13.458;2023-11-21T13:58:33;4.93;;;3.30;;
41887;SDS011;63122;52.424;13.458;2023-11-21T14:03:16;6.87;;;3.70;;
41887;SDS011;63122;52.424;13.458;2023-11-21T14:05:27;6.23;;;4.07;;
41887;SDS011;63122;52.424;13.458;2023-11-21T14:08:16;5.33;;;3.77;;
41887;SDS011;63122;52.424;13.458;2023-11-21T14:28:44;6.30;;;4.03;;
41887;SDS011;63122;52.424;13.458;2023-11-21T14:31:34;7.30;;;4.83;;
41887;SDS011;63122;52.424;13.458;2023-11-21T14:34:30;6.47;;;4.73;;
41887;SDS011;63122;52.424;13.458;2023-11-21T15:22:56;23.30;;;14.10;;
41887;SDS011;63122;52.424;13.458;2023-11-21T15:24:54;19.30;;;13.37;;
41887;SDS011;63122;52.424;13.458;2023-11-21T15:27:58;21.67;;;14.43;;
41887;SDS011;63122;52.424;13.458;2023-11-21T15:30:52;21.10;;;13.60;;
41887;SDS011;63122;52.424;13.458;2023-11-21T15:33:26;23.23;;;14.77;;
41887;SDS011;63122;52.424;13.458;2023-11-21T15:36:08;20.23;;;14.23;;
41887;SDS011;63122;52.424;13.458;2023-11-21T15:38:22;22.80;;;14.97;;
41887;SDS011;63122;52.424;13.458;2023-11-21T15:40:30;20.07;;;13.90;;
41887;SDS011;63122;52.424;13.458;2023-11-21T15:43:09;21.17;;;13.53;;
41887;SDS011;63122;52.424;13.458;2023-11-21T15:45:08;25.97;;;14.30;;
41887;SDS011;63122;52.424;13.458;2023-11-21T15:47:15;22.53;;;14.53;;
41887;SDS011;63122;52.424;13.458;2023-11-21T15:49:17;22.30;;;14.60;;
41887;SDS011;63122;52.424;13.458;2023-11-21T15:54:22;20.80;;;13.50;;
41887;SDS011;63122;52.424;13.458;2023-11-21T15:59:26;23.70;;;13.93;;
41887;SDS011;63122;52.424;13.458;2023-11-21T16:01:47;22.00;;;13.67;;
41887;SDS011;63122;52.424;13.458;2023-11-21T16:08:03;19.53;;;12.43;;
41887;SDS011;63122;52.424;13.458;2023-11-21T16:15:27;31.57;;;18.40;;
41887;SDS011;63122;52.424;13.458;2023-11-21T16:17:23;20.00;;;12.23;;
41887;SDS011;63122;52.424;13.458;2023-11-21T16:19:16;16.87;;;10.77;;
41887;SDS011;63122;52.424;13.458;2023-11-21T16:21:11;16.97;;;10.27;;
41887;SDS011;63122;52.424;13.458;2023-11-21T16:23:07;16.60;;;10.90;;
41887;SDS011;63122;52.424;13.458;2023-11-21T16:25:00;15.10;;;9.73;;
41887;SDS011;63122;52.424;13.458;2023-11-21T16:26:56;18.30;;;11.17;;
41887;SDS011;63122;52.424;13.458;2023-11-21T16:28:54;17.97;;;10.87;;
41887;SDS011;63122;52.424;13.458;2023-11-21T16:30:50;20.33;;;10.23;;
41887;SDS011;63122;52.424;13.458;2023-11-21T16:32:59;20.57;;;10.53;;
41887;SDS011;63122;52.424;13.458;2023-11-21T16:35:45;14.00;;;9.77;;
41887;SDS011;63122;52.424;13.458;2023-11-21T16:37:57;19.93;;;11.37;;
41887;SDS011;63122;52.424;13.458;2023-11-21T16:40:14;13.57;;;8.50;;
41887;SDS011;63122;52.424;13.458;2023-11-21T16:45:14;16.60;;;9.70;;
41887;SDS011;63122;52.424;13.458;2023-11-21T17:07:13;15.47;;;9.10;;
41887;SDS011;63122;52.424;13.458;2023-11-21T17:09:16;12.27;;;8.10;;
41887;SDS011;63122;52.424;13.458;2023-11-21T17:11:12;13.40;;;8.53;;
41887;SDS011;63122;52.424;13.458;2023-11-21T17:13:15;14.10;;;8.67;;
41887;SDS011;63122;52.424;13.458;2023-11-21T17:15:11;11.70;;;7.23;;
41887;SDS011;63122;52.424;13.458;2023-11-21T17:17:14;12.60;;;7.60;;
41887;SDS011;63122;52.424;13.458;2023-11-21T17:19:10;13.63;;;7.43;;
41887;SDS011;63122;52.424;13.458;2023-11-21T17:21:08;14.33;;;8.20;;
41887;SDS011;63122;52.424;13.458;2023-11-21T17:23:20;15.07;;;9.37;;
41887;SDS011;63122;52.424;13.458;2023-11-21T17:25:16;12.53;;;7.50;;
41887;SDS011;63122;52.424;13.458;2023-11-21T17:27:13;14.33;;;7.90;;
41887;SDS011;63122;52.424;13.458;2023-11-21T17:29:10;12.57;;;8.30;;
41887;SDS011;63122;52.424;13.458;2023-11-21T17:31:08;14.50;;;8.00;;
41887;SDS011;63122;52.424;13.458;2023-11-21T17:33:06;12.23;;;8.10;;
41887;SDS011;63122;52.424;13.458;2023-11-21T17:35:02;13.93;;;8.70;;
41887;SDS011;63122;52.424;13.458;2023-11-21T17:37:00;13.07;;;7.80;;
41887;SDS011;63122;52.424;13.458;2023-11-21T17:39:00;17.70;;;8.73;;
41887;SDS011;63122;52.424;13.458;2023-11-21T17:41:04;13.83;;;8.63;;
41887;SDS011;63122;52.424;13.458;2023-11-21T17:43:03;16.67;;;8.73;;
41887;SDS011;63122;52.424;13.458;2023-11-21T17:45:01;15.83;;;8.33;;
41887;SDS011;63122;52.424;13.458;2023-11-21T17:46:59;16.67;;;8.30;;
41887;SDS011;63122;52.424;13.458;2023-11-21T17:48:59;13.33;;;8.27;;
41887;SDS011;63122;52.424;13.458;2023-11-21T17:50:57;12.43;;;8.17;;
41887;SDS011;63122;52.424;13.458;2023-11-21T17:53:30;15.07;;;8.73;;
41887;SDS011;63122;52.424;13.458;2023-11-21T17:56:40;11.93;;;7.83;;
41887;SDS011;63122;52.424;13.458;2023-11-21T18:01:16;21.40;;;10.77;;
41887;SDS011;63122;52.424;13.458;2023-11-21T18:03:27;13.43;;;8.23;;
41887;SDS011;63122;52.424;13.458;2023-11-21T18:05:22;16.03;;;8.33;;
41887;SDS011;63122;52.424;13.458;2023-11-21T18:07:18;12.40;;;8.07;;
41887;SDS011;63122;52.424;13.458;2023-11-21T18:09:13;13.23;;;7.87;;
41887;SDS011;63122;52.424;13.458;2023-11-21T18:11:09;16.63;;;7.90;;
41887;SDS011;63122;52.424;13.458;2023-11-21T18:13:04;13.87;;;8.23;;
41887;SDS011;63122;52.424;13.458;2023-11-21T18:15:00;13.07;;;8.07;;
41887;SDS011;63122;52.424;13.458;2023-11-21T18:16:55;13.27;;;8.07;;
41887;SDS011;63122;52.424;13.458;2023-11-21T18:18:51;15.53;;;7.63;;
41887;SDS011;63122;52.424;13.458;2023-11-21T18:20:52;14.97;;;7.43;;
41887;SDS011;63122;52.424;13.458;2023-11-21T18:22:54;13.37;;;7.57;;
41887;SDS011;63122;52.424;13.458;2023-11-21T18:24:52;12.80;;;7.67;;
41887;SDS011;63122;52.424;13.458;2023-11-21T18:26:54;13.40;;;8.87;;
41887;SDS011;63122;52.424;13.458;2023-11-21T18:29:04;19.53;;;9.23;;
41887;SDS011;63122;52.424;13.458;2023-11-21T18:31:07;19.80;;;11.63;;
41887;SDS011;63122;52.424;13.458;2023-11-21T18:33:21;12.97;;;7.73;;
41887;SDS011;63122;52.424;13.458;2023-11-21T18:35:20;15.07;;;8.00;;
41887;SDS011;63122;52.424;13.458;2023-11-21T18:37:14;15.60;;;7.87;;
41887;SDS011;63122;52.424;13.458;2023-11-21T18:39:23;12.23;;;7.73;;
41887;SDS011;63122;52.424;13.458;2023-11-21T18:41:19;13.17;;;7.43;;
41887;SDS011;63122;52.424;13.458;2023-11-21T18:43:16;14.63;;;6.93;;
41887;SDS011;63122;52.424;13.458;2023-11-21T18:47:52;14.03;;;7.03;;
41887;SDS011;63122;52.424;13.458;2023-11-21T18:49:48;14.73;;;8.27;;
41887;SDS011;63122;52.424;13.458;2023-11-21T18:51:44;12.87;;;7.80;;
41887;SDS011;63122;52.424;13.458;2023-11-21T18:53:40;16.23;;;8.67;;
41887;SDS011;63122;52.424;13.458;2023-11-21T18:56:18;11.50;;;7.60;;
41887;SDS011;63122;52.424;13.458;2023-11-21T18:59:01;11.37;;;6.93;;
41887;SDS011;63122;52.424;13.458;2023-11-21T19:01:04;12.90;;;7.63;;
41887;SDS011;63122;52.424;13.458;2023-11-21T19:03:00;14.57;;;8.60;;
41887;SDS011;63122;52.424;13.458;2023-11-21T19:04:56;18.27;;;7.83;;
41887;SDS011;63122;52.424;13.458;2023-11-21T19:07:05;13.97;;;8.33;;
41887;SDS011;63122;52.424;13.458;2023-11-21T19:09:00;13.17;;;7.87;;
41887;SDS011;63122;52.424;13.458;2023-11-21T19:11:11;11.37;;;7.47;;
41887;SDS011;63122;52.424;13.458;2023-11-21T19:13:22;19.03;;;8.47;;
41887;SDS011;63122;52.424;13.458;2023-11-21T19:15:36;12.73;;;7.90;;
41887;SDS011;63122;52.424;13.458;2023-11-21T19:17:49;13.33;;;7.77;;
41887;SDS011;63122;52.424;13.458;2023-11-21T19:20:06;15.53;;;8.30;;
41887;SDS011;63122;52.424;13.458;2023-11-21T19:22:18;11.80;;;7.30;;
41887;SDS011;63122;52.424;13.458;2023-11-21T19:24:29;13.90;;;7.57;;
41887;SDS011;63122;52.424;13.458;2023-11-21T19:26:40;12.07;;;7.43;;
41887;SDS011;63122;52.424;13.458;2023-11-21T19:28:37;15.00;;;7.63;;
41887;SDS011;63122;52.424;13.458;2023-11-21T19:30:33;11.17;;;7.20;;
41887;SDS011;63122;52.424;13.458;2023-11-21T20:04:44;22.50;;;13.30;;
41887;SDS011;63122;52.424;13.458;2023-11-21T20:35:48;20.63;;;11.33;;
41887;SDS011;63122;52.424;13.458;2023-11-21T20:45:08;10.07;;;6.47;;
41887;SDS011;63122;52.424;13.458;2023-11-21T21:10:45;15.07;;;7.57;;
41887;SDS011;63122;52.424;13.458;2023-11-21T21:38:26;10.73;;;6.30;;
